M I D A S
Marine Information and Data Acquisition System
Tripno 944 of the Zeeleeuw from 2005-05-19 07:03:27 to 2005-05-19 13:30:32
Back to CruiseResearch ActivitiesStationsMapUnderway DataData graphs

EquipmentUnitsComment
TimeDGPSUTC
LatitudeDGPSDM.mWGS84
LongitudeDGPSDM.mWGS84
HeadingGyrodeg 
SOGDGPSknotsSpeed over ground
COGDGPSdegCourse over ground
DepthEcho soundermeters200 kHz
Missing or incorrect values are displayed as -999
Navigation data collected by the RV Zeeleeuw from 2005-05-19 06:55:13 to 2005-05-19 13:41:00
Time Latitude Longitude Heading SOG COG Depth
2005-05-19 06:56:19 51°13.561 2°56.158 135.2 4 132 10.1
2005-05-19 06:57:19 51°13.545 2°56.231 85.4 1.2 76 9.7
2005-05-19 06:58:19 51°13.541 2°56.215 48.4 1 247 10.3
2005-05-19 06:59:19 51°13.535 2°56.214 10.3 1.5 188 -999
2005-05-19 07:00:19 51°13.538 2°56.217 329.6 1.3 136 10.6
2005-05-19 07:01:19 51°13.541 2°56.202 304 3.8 304 -999
2005-05-19 07:02:19 51°13.578 2°56.052 296.9 6.5 293 10.3
2005-05-19 07:03:19 51°13.626 2°55.917 306.7 5.7 302 11.3
2005-05-19 07:04:19 51°13.694 2°55.78 311 7.1 308 12.8
2005-05-19 07:05:19 51°13.796 2°55.65 335.1 8.3 331 11.1
2005-05-19 07:06:18 51°13.932 2°55.557 341.1 9.4 337 11
2005-05-19 07:07:19 51°14.08 2°55.458 342.7 9.4 338 11.5
2005-05-19 07:08:19 51°14.233 2°55.327 332.8 11 328 11.5
2005-05-19 07:09:19 51°14.357 2°55.091 309.5 12 305 11.3
2005-05-19 07:10:19 51°14.514 2°54.862 317.3 13.2 316 11.3
2005-05-19 07:11:19 51°14.656 2°54.598 308.4 13.3 309 11.1
2005-05-19 07:12:19 51°14.784 2°54.312 304.8 13.2 304 11.2
2005-05-19 07:13:19 51°14.886 2°54.005 297 13.1 296 10.7
2005-05-19 07:14:19 51°14.985 2°53.693 298.5 13.2 297 11.1
2005-05-19 07:15:19 51°15.076 2°53.374 293.3 13.1 293 11.3
2005-05-19 07:16:19 51°15.147 2°53.049 290.2 13 289 11.6
2005-05-19 07:17:19 51°15.212 2°52.72 286.6 12.9 285 12.3
2005-05-19 07:18:19 51°15.269 2°52.388 287.2 12.9 286 12.7
2005-05-19 07:19:19 51°15.32 2°52.054 283 12.9 282 13.4
2005-05-19 07:20:19 51°15.36 2°51.721 281.8 12.9 281 13.7
2005-05-19 07:21:19 51°15.38 2°51.383 270.2 12.7 270 13.9
2005-05-19 07:22:19 51°15.373 2°51.049 271 12.7 269 14.1
2005-05-19 07:23:19 51°15.374 2°50.712 271.7 12.7 271 14.3
2005-05-19 07:24:19 51°15.372 2°50.373 269 12.6 268 14.4
2005-05-19 07:25:19 51°15.367 2°50.039 269.8 12.6 268 14.4
2005-05-19 07:26:19 51°15.363 2°49.709 269.8 12.6 269 14.5
2005-05-19 07:27:19 51°15.358 2°49.374 269.9 12.6 268 14.5
2005-05-19 07:28:19 51°15.35 2°49.044 269.5 12.6 269 14.6
2005-05-19 07:29:19 51°15.344 2°48.708 270 12.6 268 14.4
2005-05-19 07:30:19 51°15.339 2°48.379 269.7 12.5 268 12.6
2005-05-19 07:31:19 51°15.333 2°48.047 270.5 12.6 269 11.7
2005-05-19 07:32:19 51°15.327 2°47.712 270.4 12.5 269 11.7
2005-05-19 07:33:19 51°15.322 2°47.382 270.1 12.5 269 12.2
2005-05-19 07:34:19 51°15.318 2°47.05 270.4 12.5 269 13.3
2005-05-19 07:35:19 51°15.313 2°46.719 270 12.5 268 14.3
2005-05-19 07:36:19 51°15.31 2°46.388 270 12.4 268 15.6
2005-05-19 07:37:19 51°15.308 2°46.056 270.7 12.5 270 16.7
2005-05-19 07:38:19 51°15.305 2°45.722 269.5 12.4 268 17.4
2005-05-19 07:39:19 51°15.244 2°45.426 247 12 245 18.1
2005-05-19 07:40:19 51°15.224 2°45.105 272.6 12.4 273 18.9
2005-05-19 07:41:19 51°15.229 2°44.778 272.2 12.5 271 19.9
2005-05-19 07:42:19 51°15.241 2°44.443 275.7 12.5 273 19.5
2005-05-19 07:43:19 51°15.266 2°44.112 277.9 12.5 277 16.8
2005-05-19 07:44:19 51°15.297 2°43.782 280.3 12.6 280 15.1
2005-05-19 07:45:19 51°15.33 2°43.451 278.4 12.6 278 15.1
2005-05-19 07:46:19 51°15.355 2°43.123 277.4 12.6 277 15.1
2005-05-19 07:47:19 51°15.38 2°42.788 277.8 12.6 276 13.6
2005-05-19 07:48:19 51°15.405 2°42.459 277.7 12.5 277 11.5
2005-05-19 07:49:19 51°15.442 2°42.129 284.2 12.6 283 11.8
2005-05-19 07:50:19 51°15.527 2°41.824 299.7 12.8 299 12
2005-05-19 07:51:19 51°15.658 2°41.546 307.9 13 307 12.4
2005-05-19 07:52:19 51°15.787 2°41.27 306.6 13.1 307 13.9
2005-05-19 07:53:19 51°15.919 2°40.991 307 13.2 306 16.4
2005-05-19 07:54:19 51°16.065 2°40.721 311.5 13.4 311 20
2005-05-19 07:55:19 51°16.212 2°40.458 311.4 13.3 311 22
2005-05-19 07:56:19 51°16.3 2°40.268 282.1 6 289 23.2
2005-05-19 07:57:19 51°16.3 2°40.187 249.8 1.8 267 23.1
2005-05-19 07:58:19 51°16.31 2°40.186 234.4 1.1 21 23.2
2005-05-19 07:59:19 51°16.328 2°40.2 240.7 1.4 25 23.3
2005-05-19 08:00:19 51°16.349 2°40.219 255.1 1.5 29 23.3
2005-05-19 08:01:19 51°16.371 2°40.229 277.1 1.2 350 23.1
2005-05-19 08:02:19 51°16.393 2°40.211 283 1.7 326 23.3
2005-05-19 08:03:19 51°16.419 2°40.179 290.4 2.2 324 23.4
2005-05-19 08:04:19 51°16.454 2°40.147 310.2 2.7 339 23.2
2005-05-19 08:05:19 51°16.505 2°40.135 342.5 3.3 356 23.3
2005-05-19 08:06:19 51°16.563 2°40.159 18.7 3.8 25 23.3
2005-05-19 08:07:19 51°16.613 2°40.22 57 3.7 45 23.5
2005-05-19 08:08:19 51°16.643 2°40.296 91.6 3.2 64 23.5
2005-05-19 08:09:18 51°16.66 2°40.362 108.8 2.5 65 23.9
2005-05-19 08:10:19 51°16.641 2°40.434 167 3.4 143 24
2005-05-19 08:11:19 51°16.575 2°40.417 207.7 4.4 200 23.9
2005-05-19 08:12:19 51°16.504 2°40.367 209.1 4.6 201 23.7
2005-05-19 08:13:19 51°16.429 2°40.32 209.2 5 202 23.6
2005-05-19 08:14:19 51°16.336 2°40.259 209 5.3 202 23.4
2005-05-19 08:15:19 51°16.286 2°40.237 200.1 1.8 180 23.3
2005-05-19 08:16:19 51°16.281 2°40.255 179.1 0.9 105 23.4
2005-05-19 08:17:19 51°16.283 2°40.286 159.2 1.3 75 23.4
2005-05-19 08:18:19 51°16.293 2°40.323 138.8 1.7 62 23.4
2005-05-19 08:19:19 51°16.307 2°40.362 123.8 1.8 57 23.5
2005-05-19 08:20:19 51°16.325 2°40.402 113.2 1.8 55 23.5
2005-05-19 08:21:19 51°16.344 2°40.44 108.8 1.8 51 23.3
2005-05-19 08:22:19 51°16.364 2°40.477 102.8 1.8 49 23.5
2005-05-19 08:23:19 51°16.383 2°40.514 100.7 1.8 50 23.6
2005-05-19 08:24:19 51°16.403 2°40.551 100.3 1.8 49 23.5
2005-05-19 08:25:19 51°16.422 2°40.587 101.6 1.8 48 23.6
2005-05-19 08:26:19 51°16.443 2°40.623 102.1 1.9 47 23.5
2005-05-19 08:27:19 51°16.463 2°40.659 99.6 1.8 47 23.2
2005-05-19 08:28:19 51°16.484 2°40.694 99.5 1.9 47 23.5
2005-05-19 08:29:19 51°16.505 2°40.73 100.1 1.8 50 23.7
2005-05-19 08:30:19 51°16.525 2°40.767 100.1 1.8 50 23.8
2005-05-19 08:31:19 51°16.546 2°40.805 101.2 1.8 50 23.9
2005-05-19 08:32:19 51°16.567 2°40.841 100.1 1.8 49 23.8
2005-05-19 08:33:19 51°16.588 2°40.876 98.7 1.8 49 23.8
2005-05-19 08:34:19 51°16.609 2°40.911 98.7 1.8 47 23.9
2005-05-19 08:35:19 51°16.631 2°40.947 97.8 1.9 46 23.9
2005-05-19 08:36:19 51°16.653 2°40.982 97.6 1.9 46 23.8
2005-05-19 08:37:19 51°16.673 2°41.015 97.7 1.8 49 24
2005-05-19 08:38:19 51°16.695 2°41.052 100.6 1.8 48 23.9
2005-05-19 08:39:19 51°16.717 2°41.092 102.1 1.8 48 23.9
2005-05-19 08:40:19 51°16.697 2°41.176 165.3 4 148 23.4
2005-05-19 08:41:19 51°16.651 2°41.12 246 5.1 245 23.3
2005-05-19 08:42:19 51°16.554 2°40.939 228.5 11.2 225 23.4
2005-05-19 08:43:19 51°16.415 2°40.708 229.5 12.2 227 23.1
2005-05-19 08:44:19 51°16.278 2°40.464 232.9 12.3 232 22.6
2005-05-19 08:45:19 51°16.157 2°40.205 233.9 12.1 232 22.6
2005-05-19 08:46:19 51°16.032 2°39.945 234.6 12.3 232 22.3
2005-05-19 08:47:19 51°15.908 2°39.683 234.4 12.5 232 21.8
2005-05-19 08:48:19 51°15.783 2°39.423 234.6 12.4 232 21.2
2005-05-19 08:49:19 51°15.657 2°39.163 235.4 12.3 233 20.4
2005-05-19 08:50:19 51°15.533 2°38.905 235.1 12.4 232 19.5
2005-05-19 08:51:19 51°15.405 2°38.646 234.9 12.3 231 18.1
2005-05-19 08:52:19 51°15.278 2°38.39 235.6 12.3 231 16.3
2005-05-19 08:53:19 51°15.153 2°38.141 234.7 12.1 231 14.4
2005-05-19 08:54:19 51°15.043 2°37.879 241 12 237 13.1
2005-05-19 08:55:19 51°14.938 2°37.609 242.1 12 238 11.7
2005-05-19 08:56:18 51°14.834 2°37.342 241.6 12 238 11.6
2005-05-19 08:57:19 51°14.754 2°37.165 234.4 5.9 228 11.9
2005-05-19 08:58:19 51°14.713 2°37.118 222.5 0.5 132 11.7
2005-05-19 08:59:19 51°14.716 2°37.138 235 0.8 67 12.4
2005-05-19 09:00:19 51°14.726 2°37.159 252.3 1.2 48 11.2
2005-05-19 09:01:19 51°14.738 2°37.182 261.2 1.2 45 11.9
2005-05-19 09:02:19 51°14.752 2°37.206 258.4 1.3 41 12.1
2005-05-19 09:03:18 51°14.765 2°37.232 252.2 1.3 60 12.4
2005-05-19 09:04:19 51°14.774 2°37.247 236.9 0.5 199 12.8
2005-05-19 09:05:19 51°14.724 2°37.298 148.1 5.9 130 11.6
2005-05-19 09:06:19 51°14.604 2°37.533 137 13.4 129 14.1
2005-05-19 09:07:19 51°14.472 2°37.847 131.6 14.2 122 16.7
2005-05-19 09:08:19 51°14.344 2°38.159 132.2 14 123 19.4
2005-05-19 09:09:19 51°14.213 2°38.469 136.3 14 125 19.1
2005-05-19 09:10:19 51°14.067 2°38.748 145.2 13.6 134 14.4
2005-05-19 09:11:19 51°13.869 2°38.857 182.2 12.6 176 15.4
2005-05-19 09:12:19 51°13.667 2°38.778 208.4 12.5 203 16.3
2005-05-19 09:13:19 51°13.487 2°38.621 213.1 12.3 208 16.4
2005-05-19 09:14:19 51°13.311 2°38.447 220.6 12.4 214 16.1
2005-05-19 09:15:19 51°13.148 2°38.253 221.5 12.3 217 15.8
2005-05-19 09:16:19 51°12.976 2°38.068 215.4 12.3 210 15.4
2005-05-19 09:17:19 51°12.793 2°37.914 212.6 12.5 208 14.7
2005-05-19 09:18:19 51°12.611 2°37.763 212.6 12.4 208 14.4
2005-05-19 09:19:19 51°12.428 2°37.607 212.3 12.4 208 14
2005-05-19 09:20:19 51°12.247 2°37.448 213.5 12.5 209 13.6
2005-05-19 09:21:19 51°12.066 2°37.293 212.4 12.4 208 13.6
2005-05-19 09:22:19 51°11.885 2°37.135 214 12.5 209 13.7
2005-05-19 09:23:19 51°11.704 2°36.975 213 12.2 209 13.9
2005-05-19 09:24:19 51°11.522 2°36.82 213 12.3 209 14.1
2005-05-19 09:25:19 51°11.342 2°36.66 213.1 12.4 209 13.9
2005-05-19 09:26:19 51°11.161 2°36.503 213.5 12.5 209 13.8
2005-05-19 09:27:19 51°10.982 2°36.348 213.3 12.1 209 13.6
2005-05-19 09:28:19 51°10.795 2°36.231 206.1 12 201 13.1
2005-05-19 09:29:19 51°10.612 2°36.119 207.2 11.9 201 12.7
2005-05-19 09:30:19 51°10.427 2°36.008 206.4 11.7 200 12.8
2005-05-19 09:31:19 51°10.232 2°35.952 196 11.9 189 12.5
2005-05-19 09:32:19 51°10.03 2°35.97 173.3 12.5 165 19
2005-05-19 09:33:19 51°9.834 2°36.093 165.4 12.8 158 19.7
2005-05-19 09:34:19 51°9.632 2°36.207 171.6 12.7 163 19.3
2005-05-19 09:35:19 51°9.473 2°36.275 182.4 7.1 173 18.3
2005-05-19 09:36:19 51°9.403 2°36.254 215.5 3.5 199 17.9
2005-05-19 09:37:19 51°9.35 2°36.215 218.7 3.8 207 17.9
2005-05-19 09:38:19 51°9.323 2°36.192 235.7 0.3 209 17.6
2005-05-19 09:39:19 51°9.338 2°36.204 277.7 1.4 22 18
2005-05-19 09:40:19 51°9.36 2°36.22 281.2 1.4 26 18.2
2005-05-19 09:41:19 51°9.38 2°36.239 274.7 1.5 31 18.1
2005-05-19 09:42:19 51°9.399 2°36.261 270.2 1.4 39 18
2005-05-19 09:43:19 51°9.418 2°36.287 269.6 1.5 43 18.3
2005-05-19 09:44:19 51°9.438 2°36.314 270 1.6 40 18.3
2005-05-19 09:45:19 51°9.459 2°36.341 273.3 1.6 40 18.4
2005-05-19 09:46:19 51°9.48 2°36.369 276.6 1.7 40 18.3
2005-05-19 09:47:19 51°9.501 2°36.398 280.6 1.8 39 18.5
2005-05-19 09:48:19 51°9.522 2°36.427 284.1 1.6 43 18.3
2005-05-19 09:49:19 51°9.543 2°36.448 288.8 1.4 15 18.4
2005-05-19 09:50:19 51°9.566 2°36.44 291.2 1.7 338 18.2
2005-05-19 09:51:19 51°9.6 2°36.424 315.6 2.5 350 18.2
2005-05-19 09:52:19 51°9.648 2°36.426 349.7 3.2 11 18.8
2005-05-19 09:53:19 51°9.7 2°36.471 32.9 3.7 41 19.3
2005-05-19 09:54:19 51°9.736 2°36.551 77.9 3.5 64 19.1
2005-05-19 09:55:19 51°9.748 2°36.631 108.9 2.9 81 19
2005-05-19 09:56:19 51°9.734 2°36.722 140.4 5.4 127 19
2005-05-19 09:57:19 51°9.627 2°36.825 170.7 8.4 160 17.9
2005-05-19 09:58:19 51°9.467 2°36.9 173.1 11.1 164 17.4
2005-05-19 09:59:19 51°9.287 2°36.968 174.3 10.1 167 14.9
2005-05-19 10:00:19 51°9.191 2°37.03 161.4 5 143 13.4
2005-05-19 10:01:19 51°9.16 2°37.129 120.2 4.1 100 12.6
2005-05-19 10:02:19 51°9.169 2°37.235 87.1 4 78 12.5
2005-05-19 10:03:19 51°9.185 2°37.337 95.6 3.8 80 12.4
2005-05-19 10:04:19 51°9.196 2°37.433 93.8 3.7 78 12.4
2005-05-19 10:05:19 51°9.21 2°37.529 91.3 3.7 77 12.3
2005-05-19 10:06:19 51°9.227 2°37.62 87.2 3.4 71 12.3
2005-05-19 10:07:19 51°9.245 2°37.7 86.3 3.1 71 12.4
2005-05-19 10:08:19 51°9.263 2°37.773 85.6 2.8 69 12.3
2005-05-19 10:09:19 51°9.28 2°37.841 85.6 2.7 65 12.3
2005-05-19 10:10:19 51°9.298 2°37.904 81.7 2.6 64 12.3
2005-05-19 10:11:19 51°9.317 2°37.966 81.5 2.6 64 12.5
2005-05-19 10:12:19 51°9.337 2°38.028 79.9 2.6 61 12.4
2005-05-19 10:13:19 51°9.358 2°38.088 80.9 2.6 62 12.5
2005-05-19 10:14:19 51°9.377 2°38.149 85.8 2.5 64 12.5
2005-05-19 10:15:19 51°9.393 2°38.21 89 2.5 66 12.5
2005-05-19 10:16:19 51°9.41 2°38.273 87.4 2.6 67 12.5
2005-05-19 10:17:19 51°9.427 2°38.335 84.6 2.6 65 12.5
2005-05-19 10:18:19 51°9.445 2°38.4 85.1 2.6 67 12.5
2005-05-19 10:19:19 51°9.462 2°38.464 87 2.7 68 12.5
2005-05-19 10:20:19 51°9.478 2°38.531 89.5 2.7 68 12.4
2005-05-19 10:21:19 51°9.493 2°38.597 92.1 2.7 71 12.4
2005-05-19 10:22:19 51°9.508 2°38.662 91.1 2.6 71 12.4
2005-05-19 10:23:19 51°9.522 2°38.728 90.2 2.6 71 12.3
2005-05-19 10:24:19 51°9.538 2°38.794 88.9 2.6 68 12.3
2005-05-19 10:25:19 51°9.555 2°38.858 87 2.7 64 12.3
2005-05-19 10:26:19 51°9.573 2°38.923 84.7 2.6 69 12.3
2005-05-19 10:27:19 51°9.591 2°38.988 82.7 2.7 64 12.2
2005-05-19 10:28:19 51°9.61 2°39.051 82.6 2.7 63 12.2
2005-05-19 10:29:19 51°9.632 2°39.115 82 2.7 64 12.2
2005-05-19 10:30:19 51°9.652 2°39.177 83 2.7 63 12.2
2005-05-19 10:31:19 51°9.67 2°39.241 84.9 2.7 63 12.1
2005-05-19 10:32:19 51°9.687 2°39.304 85.8 2.6 67 12
2005-05-19 10:33:19 51°9.705 2°39.367 84.4 2.7 62 12
2005-05-19 10:34:19 51°9.727 2°39.43 85.3 2.6 64 12
2005-05-19 10:35:19 51°9.746 2°39.493 86.5 2.6 65 12
2005-05-19 10:36:19 51°9.762 2°39.558 90 2.8 69 12
2005-05-19 10:37:19 51°9.778 2°39.639 89.3 3.4 73 12
2005-05-19 10:38:19 51°9.796 2°39.733 87.9 3.8 74 11.9
2005-05-19 10:39:19 51°9.813 2°39.827 93.7 3.5 73 11.9
2005-05-19 10:40:19 51°9.824 2°39.901 102.2 2.7 75 11.8
2005-05-19 10:41:19 51°9.835 2°39.962 107.7 2.2 74 11.8
2005-05-19 10:42:19 51°9.845 2°40.015 112.3 2 73 11.7
2005-05-19 10:43:19 51°9.853 2°40.085 96.4 3.5 80 11.7
2005-05-19 10:44:19 51°9.882 2°40.243 80.1 9.5 74 11.5
2005-05-19 10:45:19 51°9.959 2°40.554 74.6 14.1 69 11.3
2005-05-19 10:46:19 51°10.048 2°40.903 72.4 14.5 67 11
2005-05-19 10:47:19 51°10.136 2°41.261 74 14.5 68 10.9
2005-05-19 10:48:19 51°10.224 2°41.62 74.7 14.6 69 10.8
2005-05-19 10:49:19 51°10.311 2°41.982 74.9 14.5 70 10.7
2005-05-19 10:50:19 51°10.397 2°42.338 73.7 14.4 69 10.6
2005-05-19 10:51:19 51°10.482 2°42.692 74.5 14.4 70 10.5
2005-05-19 10:52:19 51°10.568 2°43.047 73.8 14.4 68 10.5
2005-05-19 10:53:19 51°10.654 2°43.401 74.3 14.4 69 10.7
2005-05-19 10:54:19 51°10.739 2°43.754 75 14.4 69 10.7
2005-05-19 10:55:19 51°10.847 2°44.09 67.2 14.3 62 10.9
2005-05-19 10:56:19 51°10.96 2°44.423 66.2 14.3 62 11.2
2005-05-19 10:57:19 51°11.073 2°44.753 66.1 14.3 61 11.4
2005-05-19 10:58:19 51°11.184 2°45.09 67.5 14.3 62 11.7
2005-05-19 10:59:19 51°11.296 2°45.424 66.4 14.3 62 11.9
2005-05-19 11:00:19 51°11.409 2°45.758 67.3 14.3 62 12.2
2005-05-19 11:01:19 51°11.52 2°46.094 67.7 14.3 62 12.5
2005-05-19 11:02:19 51°11.631 2°46.431 67.7 14.4 62 12.6
2005-05-19 11:03:19 51°11.744 2°46.768 66.1 14.4 61 12.6
2005-05-19 11:04:19 51°11.857 2°47.106 67.9 14.4 63 12.7
2005-05-19 11:05:19 51°11.97 2°47.447 67.9 14.5 63 12.8
2005-05-19 11:06:19 51°12.083 2°47.785 66.7 14.6 62 12.8
2005-05-19 11:07:19 51°12.197 2°48.13 67.3 14.6 61 12.7
2005-05-19 11:08:20 51°12.312 2°48.473 67.7 14.5 62 12.7
2005-05-19 11:09:19 51°12.422 2°48.81 67.5 14.5 63 12.6
2005-05-19 11:10:19 51°12.536 2°49.148 67.3 14.5 62 12.5
2005-05-19 11:11:19 51°12.65 2°49.484 67.1 14.4 61 12.4
2005-05-19 11:12:19 51°12.771 2°49.815 64.5 14.4 59 12.3
2005-05-19 11:13:19 51°12.895 2°50.142 64 14.4 59 12.2
2005-05-19 11:14:19 51°13.015 2°50.472 65.3 14.5 60 12.1
2005-05-19 11:15:19 51°13.141 2°50.806 63.6 14.6 58 12
2005-05-19 11:16:19 51°13.267 2°51.139 63.6 14.7 59 11.9
2005-05-19 11:17:19 51°13.391 2°51.473 64.5 14.6 60 11.8
2005-05-19 11:18:19 51°13.515 2°51.807 64.5 14.6 60 11.7
2005-05-19 11:19:19 51°13.64 2°52.14 64.7 14.7 59 11.5
2005-05-19 11:20:19 51°13.769 2°52.469 60.2 14.5 55 11.5
2005-05-19 11:21:19 51°13.906 2°52.786 59.6 14.6 55 11.4
2005-05-19 11:22:19 51°14.043 2°53.105 59.5 14.6 55 11.1
2005-05-19 11:23:19 51°14.186 2°53.418 57.3 14.6 53 10.9
2005-05-19 11:24:19 51°14.33 2°53.73 58.9 14.6 54 10.7
2005-05-19 11:25:19 51°14.484 2°54.025 49.4 14.6 46 10.8
2005-05-19 11:26:19 51°14.659 2°54.299 48.6 14.6 45 11.1
2005-05-19 11:27:19 51°14.841 2°54.551 40.5 14.5 37 10.4
2005-05-19 11:28:19 51°15.035 2°54.783 39.9 14.6 36 9.7
2005-05-19 11:29:19 51°15.229 2°55.014 40.9 14.6 38 9.1
2005-05-19 11:30:19 51°15.42 2°55.25 41.3 14.7 38 9.2
2005-05-19 11:31:19 51°15.601 2°55.517 48.2 14.7 45 9.4
2005-05-19 11:32:19 51°15.754 2°55.816 59.1 14.6 54 9.5
2005-05-19 11:33:20 51°15.899 2°56.134 58.4 14.7 54 9.6
2005-05-19 11:34:19 51°16.04 2°56.441 58.2 14.5 55 9.9
2005-05-19 11:35:19 51°16.172 2°56.766 61.4 14.5 57 9.9
2005-05-19 11:36:19 51°16.301 2°57.089 61.5 14.4 57 10.1
2005-05-19 11:37:19 51°16.422 2°57.417 65.2 14.3 60 10.2
2005-05-19 11:38:19 51°16.54 2°57.747 64.9 14.3 60 10.2
2005-05-19 11:39:19 51°16.658 2°58.072 64.7 14.2 60 10.1
2005-05-19 11:40:19 51°16.777 2°58.402 65 14.3 61 10.1
2005-05-19 11:41:19 51°16.896 2°58.727 64.4 14.1 60 10.2
2005-05-19 11:42:19 51°17.015 2°59.059 64.2 14.3 60 10
2005-05-19 11:43:19 51°17.143 2°59.376 58.8 14.4 54 10.1
2005-05-19 11:44:19 51°17.276 2°59.694 60.6 14.3 56 10.1
2005-05-19 11:45:20 51°17.414 3°0.009 57.2 14.5 52 10
2005-05-19 11:46:20 51°17.56 3°0.313 56.2 14.4 53 10
2005-05-19 11:47:19 51°17.703 3°0.617 56.5 14.4 52 10
2005-05-19 11:48:20 51°17.85 3°0.924 56.7 14.5 53 9.9
2005-05-19 11:49:19 51°17.984 3°1.237 60.2 14.4 55 9.3
2005-05-19 11:50:19 51°18.121 3°1.551 59.5 14.4 55 9.6
2005-05-19 11:51:19 51°18.265 3°1.854 54.8 14.4 51 9.5
2005-05-19 11:52:19 51°18.414 3°2.16 56.5 14.4 52 9
2005-05-19 11:53:19 51°18.56 3°2.463 57.7 14.4 54 8.8
2005-05-19 11:54:19 51°18.706 3°2.764 56.7 14.2 53 8.5
2005-05-19 11:55:19 51°18.851 3°3.061 57 14.3 53 8.4
2005-05-19 11:56:19 51°18.997 3°3.364 56.6 14.4 52 8.6
2005-05-19 11:57:19 51°19.138 3°3.668 56.2 14.3 52 8.7
2005-05-19 11:58:19 51°19.258 3°3.935 55.3 10 49 9.1
2005-05-19 11:59:19 51°19.342 3°4.062 34.2 4.9 31 9.3
2005-05-19 12:00:19 51°19.369 3°4.086 355.6 1.1 54 9
2005-05-19 12:01:19 51°19.383 3°4.107 351.1 1.2 39 9.2
2005-05-19 12:02:19 51°19.401 3°4.127 338.7 1.4 34 9.3
2005-05-19 12:03:19 51°19.419 3°4.144 322.8 1.3 34 9.4
2005-05-19 12:04:19 51°19.436 3°4.16 311.3 1.2 33 9.3
2005-05-19 12:05:19 51°19.451 3°4.178 306.1 1.2 36 9.1
2005-05-19 12:06:19 51°19.467 3°4.198 305.4 1.2 40 9
2005-05-19 12:07:19 51°19.481 3°4.219 309.3 1.2 43 9.1
2005-05-19 12:08:19 51°19.495 3°4.241 314.2 1 47 9.1
2005-05-19 12:09:19 51°19.511 3°4.255 327.1 1.3 13 9.3
2005-05-19 12:10:19 51°19.543 3°4.257 349.7 2.3 3 9.2
2005-05-19 12:11:19 51°19.589 3°4.278 28.9 3.1 28 9.1
2005-05-19 12:12:19 51°19.619 3°4.343 78.9 3.1 64 9.2
2005-05-19 12:13:19 51°19.622 3°4.41 118.3 2.3 92 9.2
2005-05-19 12:14:19 51°19.617 3°4.46 138.5 1.7 103 9.1
2005-05-19 12:15:19 51°19.611 3°4.498 150.3 1.3 106 9
2005-05-19 12:16:20 51°19.605 3°4.529 159.1 1.1 107 9.1
2005-05-19 12:17:19 51°19.601 3°4.554 167.1 0.9 110 9
2005-05-19 12:18:19 51°19.594 3°4.575 175.1 0.8 125 9
2005-05-19 12:19:19 51°19.585 3°4.594 181.7 0.9 132 8.9
2005-05-19 12:20:19 51°19.572 3°4.614 176.9 1.1 134 8.9
2005-05-19 12:21:19 51°19.556 3°4.636 176.8 1.2 136 8.9
2005-05-19 12:22:19 51°19.521 3°4.648 195.9 2.4 183 8.8
2005-05-19 12:23:19 51°19.477 3°4.617 218.5 3.1 214 8.8
2005-05-19 12:24:19 51°19.441 3°4.551 232.9 3.5 234 8.8
2005-05-19 12:25:19 51°19.407 3°4.471 235.8 3.7 237 8.9
2005-05-19 12:26:20 51°19.375 3°4.389 237.1 3.3 240 8.8
2005-05-19 12:27:19 51°19.354 3°4.327 238.1 2.5 243 8.8
2005-05-19 12:28:19 51°19.34 3°4.271 239.5 2.2 254 8.8
2005-05-19 12:29:20 51°19.328 3°4.22 239.1 2 252 8.9
2005-05-19 12:30:19 51°19.318 3°4.174 238.9 1.8 248 9
2005-05-19 12:31:19 51°19.309 3°4.13 238.7 1.8 258 8.9
2005-05-19 12:32:19 51°19.299 3°4.087 237.9 1.7 251 9
2005-05-19 12:33:19 51°19.292 3°4.045 240.3 1.7 259 9
2005-05-19 12:34:19 51°19.286 3°4.003 240.3 1.6 255 8.9
2005-05-19 12:35:19 51°19.278 3°3.962 238.7 1.6 257 8.8
2005-05-19 12:36:19 51°19.269 3°3.923 237.4 1.6 248 8.7
2005-05-19 12:37:19 51°19.258 3°3.882 234.2 1.9 241 8.7
2005-05-19 12:38:19 51°19.233 3°3.832 225.7 2.6 222 8.8
2005-05-19 12:39:20 51°19.199 3°3.777 224.8 3 226 8.6
2005-05-19 12:40:19 51°19.163 3°3.719 225.7 3.2 232 8.6
2005-05-19 12:41:19 51°19.128 3°3.656 228.5 3.2 230 8.7
2005-05-19 12:42:20 51°19.094 3°3.592 229.8 3.1 231 8.7
2005-05-19 12:43:19 51°19.064 3°3.531 229.8 2.9 228 8.6
2005-05-19 12:44:20 51°19.034 3°3.473 229.4 2.8 234 8.7
2005-05-19 12:45:19 51°19.006 3°3.415 230.8 2.7 233 8.6
2005-05-19 12:46:19 51°18.982 3°3.359 231.6 2.5 232 8.5
2005-05-19 12:47:19 51°18.961 3°3.305 231.5 2.3 237 8.5
2005-05-19 12:48:19 51°18.941 3°3.254 230.6 2.3 242 8.4
2005-05-19 12:49:19 51°18.924 3°3.203 232.5 2.1 244 8.4
2005-05-19 12:50:20 51°18.907 3°3.15 232.1 2.2 239 8.4
2005-05-19 12:51:19 51°18.89 3°3.087 248.6 2.9 257 8.3
2005-05-19 12:52:19 51°18.888 3°2.998 268.6 3.6 274 8.3
2005-05-19 12:53:19 51°18.905 3°2.863 277.2 5.4 278 8.5
2005-05-19 12:54:19 51°18.901 3°2.762 256.7 3.1 263 8.2
2005-05-19 12:55:19 51°18.895 3°2.7 251.6 2 263 8.4
2005-05-19 12:56:19 51°18.894 3°2.659 253 1.3 270 8.3
2005-05-19 12:57:19 51°18.894 3°2.616 248.4 2.9 254 8.4
2005-05-19 12:58:20 51°18.815 3°2.451 233.3 10.4 232 8.2
2005-05-19 12:59:20 51°18.69 3°2.196 233.1 12.5 232 -999
2005-05-19 13:00:20 51°18.562 3°1.924 233.7 12.8 231 7.8
2005-05-19 13:01:20 51°18.433 3°1.652 236.1 12.8 234 7.7
2005-05-19 13:02:19 51°18.303 3°1.383 232.7 12.9 232 7.8
2005-05-19 13:03:20 51°18.173 3°1.105 235.3 13 234 7.9
2005-05-19 13:04:20 51°18.043 3°0.829 234.5 13.1 233 8
2005-05-19 13:05:20 51°17.912 3°0.551 235.1 13.1 232 8.3
2005-05-19 13:06:20 51°17.782 3°0.272 234.6 13.1 233 8.4
2005-05-19 13:07:20 51°17.653 2°59.991 235.8 13.1 234 8.9
2005-05-19 13:08:20 51°17.524 2°59.709 236.4 13.2 234 9
2005-05-19 13:09:20 51°17.395 2°59.427 235 13.1 233 9.2
2005-05-19 13:10:20 51°17.266 2°59.146 235.6 13.2 235 9.2
2005-05-19 13:11:20 51°17.136 2°58.862 235 13.1 234 9.3
2005-05-19 13:12:20 51°17.006 2°58.576 236 13.3 234 9.2
2005-05-19 13:13:20 51°16.876 2°58.292 236 13.2 234 9.2
2005-05-19 13:14:20 51°16.747 2°58.008 236.3 13.3 235 9.3
2005-05-19 13:15:20 51°16.617 2°57.726 234.8 13.2 233 9.3
2005-05-19 13:16:20 51°16.488 2°57.443 234.6 13.3 233 9.2
2005-05-19 13:17:20 51°16.36 2°57.161 235.6 13.1 234 9.1
2005-05-19 13:18:20 51°16.23 2°56.877 235 13.1 234 8.9
2005-05-19 13:19:19 51°16.104 2°56.599 234.7 13.2 233 8.8
2005-05-19 13:20:20 51°15.974 2°56.315 235.2 13.2 235 8.6
2005-05-19 13:21:20 51°15.854 2°56.025 241.6 13.1 240 8.6
2005-05-19 13:22:20 51°15.739 2°55.728 240.2 13.1 238 8.4
2005-05-19 13:23:20 51°15.613 2°55.445 232.5 13 231 8.4
2005-05-19 13:24:20 51°15.467 2°55.194 224.6 12.8 223 8.2
2005-05-19 13:25:20 51°15.3 2°54.986 213.8 12.6 210 7.9
2005-05-19 13:26:20 51°15.106 2°54.856 196.6 12.9 199 8.1
2005-05-19 13:27:20 51°14.893 2°54.816 183.8 13.3 184 8.7
2005-05-19 13:28:20 51°14.679 2°54.832 177.3 13 175 9.2
2005-05-19 13:29:20 51°14.474 2°54.926 159.8 13 156 9.7
2005-05-19 13:30:20 51°14.327 2°55.126 133.2 10.9 130 9.7
2005-05-19 13:31:20 51°14.219 2°55.322 139.3 9.3 138 9.9
2005-05-19 13:32:20 51°14.095 2°55.435 156.2 7.8 153 9.8
2005-05-19 13:33:19 51°13.99 2°55.51 161.1 6.7 157 9.4
2005-05-19 13:34:19 51°13.889 2°55.585 158.4 6.7 155 9.4
2005-05-19 13:35:20 51°13.792 2°55.67 149.7 6.6 145 9.5
2005-05-19 13:36:20 51°13.723 2°55.799 128.7 6 124 11.3
2005-05-19 13:37:20 51°13.673 2°55.904 136.2 4.4 134 -999
2005-05-19 13:38:19 51°13.633 2°55.979 134.1 3.6 128 8.4
2005-05-19 13:39:20 51°13.608 2°56.053 119.4 2.9 113 8.5
2005-05-19 13:40:20 51°13.596 2°56.099 121.8 1.1 116 6.4